メインページ
METAR-TAF:

METAR-TAF

空港 :

松山空港

松山, 日本

緯度: 33-49N, 経度: 132-42E, 海抜: 4m

現時点の気象観測

当レポートは1時間6分前の11:00(UTC)に作成
西/南西の風 3kt、南西から北西の間で変化する
気温 17°C
湿度 82%
気圧 1017 hPa
視程10km以上
高度3000ftの雲はほとんどない
高度18000ftの千切れ雲あり

METAR: RJOM 201100Z 25003KT 220V310 9999 FEW030 BKN180 17/14 Q1017

時間: 21:06 (12:06 UTC)

予報

当レポートは58分前の11:08(UTC)に作成
予報は20日の 12時(UTC)から 21日の 18時(UTC)まで有効
西/南西の風 4kt
視程10km以上
高度3000ftの雲はほとんどない
高度5000ftの千切れ雲あり
20日の 12時(UTC)から 20日の 14時(UTC)まで徐々に
東/南東の風 7kt
21日の 00時(UTC)から 21日の 03時(UTC)まで徐々に
の風 10kt
21日の 06時(UTC)から 21日の 09時(UTC)まで徐々に
南東の風 11kt

TAF: RJOM 201108Z 2012/2118 24004KT 9999 FEW030 BKN050 BECMG 2012/2014 12007KT BECMG 2100/2103 35010KT BECMG 2106/2109 13011KT

4,000以上の空港の気象観測と天気予報(METAR報とTAF報)

利用可能な観測所は地図上に黄色い丸と赤い丸で示す。

丸の上にカーソルを重ねると観測所名を参照できる。

次にクリックすると気象観測と天気予報を参照できる。

マップの切り替え:黒色「×」印の緑ボタンをクリックして拡大、「-」印の緑ボタンをクリックして縮小、緑色の三角印をクリックして隣りの地図に切り替え


METAR-TAF: